createdAt,value
2023-03-04T00:02:14.377Z,-0.30
2023-03-04T00:04:41.200Z,-0.30
2023-03-04T00:07:07.880Z,-0.30
2023-03-04T00:09:34.568Z,-0.30
2023-03-04T00:12:01.262Z,-0.30
2023-03-04T00:14:30.360Z,-0.30
2023-03-04T00:16:57.197Z,-0.40
2023-03-04T00:19:24.021Z,-0.40
2023-03-04T00:21:50.675Z,-0.50
2023-03-04T00:24:18.382Z,-0.60
2023-03-04T00:26:46.383Z,-0.60
2023-03-04T00:29:13.121Z,-0.60
2023-03-04T00:31:39.815Z,-0.60
2023-03-04T00:34:07.866Z,-0.60
2023-03-04T00:36:34.552Z,-0.60
2023-03-04T00:39:01.262Z,-0.60
2023-03-04T00:41:28.930Z,-0.60
2023-03-04T00:43:55.615Z,-0.70
2023-03-04T00:46:22.423Z,-0.70
2023-03-04T00:48:49.106Z,-0.70
2023-03-04T00:51:15.771Z,-0.80
2023-03-04T00:53:42.529Z,-0.80
2023-03-04T00:56:09.373Z,-0.80
2023-03-04T00:58:36.019Z,-0.80
2023-03-04T01:01:02.758Z,-0.80
2023-03-04T01:03:31.397Z,-0.80
2023-03-04T01:05:58.876Z,-0.90
2023-03-04T01:08:26.462Z,-0.90
2023-03-04T01:10:53.693Z,-0.90
2023-03-04T01:13:20.374Z,-1.00
2023-03-04T01:15:47.103Z,-1.00
2023-03-04T01:18:13.846Z,-1.00
2023-03-04T01:20:41.523Z,-1.10
2023-03-04T01:23:08.202Z,-1.10
2023-03-04T01:25:35.475Z,-1.10
2023-03-04T01:28:02.268Z,-1.10
2023-03-04T01:30:28.978Z,-1.10
2023-03-04T01:32:56.491Z,-1.10
2023-03-04T01:35:23.287Z,-1.10
2023-03-04T01:37:50.106Z,-1.00
2023-03-04T01:40:17.553Z,-1.00
2023-03-04T01:42:45.457Z,-1.00
2023-03-04T01:45:17.618Z,-1.00
2023-03-04T01:47:48.442Z,-1.00
2023-03-04T01:50:32.399Z,-1.00
2023-03-04T01:52:59.483Z,-1.10
2023-03-04T01:55:28.448Z,-1.10
2023-03-04T01:57:57.243Z,-1.20
2023-03-04T02:00:33.454Z,-1.10
2023-03-04T02:03:12.328Z,-1.20
2023-03-04T02:05:43.174Z,-1.20
2023-03-04T02:08:11.078Z,-1.20
2023-03-04T02:10:38.878Z,-1.30
2023-03-04T02:13:06.035Z,-1.30
2023-03-04T02:15:33.097Z,-1.30
2023-03-04T02:18:01.474Z,-1.40
2023-03-04T02:20:37.333Z,-1.50
2023-03-04T02:23:11.028Z,-1.50
2023-03-04T02:26:12.180Z,-1.50
2023-03-04T02:28:39.267Z,-1.60
2023-03-04T02:31:06.161Z,-1.70
2023-03-04T02:33:33.243Z,-1.70
2023-03-04T02:35:59.981Z,-1.70
2023-03-04T02:38:26.824Z,-1.80
2023-03-04T02:40:54.575Z,-1.80
2023-03-04T02:43:21.393Z,-1.70
2023-03-04T02:45:50.622Z,-1.70
2023-03-04T02:48:20.613Z,-1.80
2023-03-04T02:50:49.788Z,-1.80
2023-03-04T02:53:17.381Z,-1.80
2023-03-04T02:55:44.694Z,-1.80
2023-03-04T02:58:13.217Z,-1.90
2023-03-04T03:00:40.932Z,-1.90
2023-03-04T03:03:08.791Z,-1.90
2023-03-04T03:05:37.096Z,-1.80
2023-03-04T03:08:04.808Z,-1.80
2023-03-04T03:10:32.575Z,-1.80
2023-03-04T03:12:59.939Z,-1.80
2023-03-04T03:15:26.875Z,-1.80
2023-03-04T03:17:55.067Z,-1.80
2023-03-04T03:20:21.746Z,-1.80
2023-03-04T03:22:48.469Z,-1.80
2023-03-04T03:25:16.399Z,-1.70
2023-03-04T03:27:43.786Z,-1.80
2023-03-04T03:30:14.345Z,-1.80
2023-03-04T03:32:41.030Z,-1.80
2023-03-04T03:35:08.722Z,-1.80
2023-03-04T03:37:35.422Z,-1.90
2023-03-04T03:40:02.344Z,-1.90
2023-03-04T03:42:29.061Z,-1.90
2023-03-04T03:44:56.048Z,-1.90
2023-03-04T03:47:22.971Z,-1.90
2023-03-04T03:49:49.633Z,-1.90
2023-03-04T03:52:16.340Z,-1.90
2023-03-04T03:54:43.331Z,-1.90
2023-03-04T03:57:09.993Z,-1.90
2023-03-04T03:59:36.712Z,-2.00
2023-03-04T04:02:03.572Z,-2.00
2023-03-04T04:04:30.356Z,-2.00
2023-03-04T04:06:57.108Z,-2.10
2023-03-04T04:09:23.812Z,-2.20
2023-03-04T04:11:50.548Z,-2.20
2023-03-04T04:14:17.261Z,-2.20
2023-03-04T04:16:44.082Z,-2.20
2023-03-04T04:19:17.935Z,-2.20
2023-03-04T04:21:45.128Z,-2.30
2023-03-04T04:24:12.061Z,-2.30
2023-03-04T04:26:38.743Z,-2.40
2023-03-04T04:29:06.582Z,-2.40
2023-03-04T04:31:33.299Z,-2.40
2023-03-04T04:34:01.040Z,-2.40
2023-03-04T04:36:28.080Z,-2.40
2023-03-04T04:38:54.790Z,-2.40
2023-03-04T04:41:22.770Z,-2.40
2023-03-04T04:43:49.617Z,-2.40
2023-03-04T04:46:16.872Z,-2.50
2023-03-04T04:48:43.971Z,-2.50
2023-03-04T04:51:10.751Z,-2.40
2023-03-04T04:53:37.626Z,-2.40
2023-03-04T04:56:16.609Z,-2.50
2023-03-04T04:58:44.286Z,-2.50
2023-03-04T05:01:11.043Z,-2.50
2023-03-04T05:03:38.813Z,-2.50
2023-03-04T05:06:07.242Z,-2.50
2023-03-04T05:08:34.318Z,-2.50
2023-03-04T05:11:01.804Z,-2.40
2023-03-04T05:13:28.477Z,-2.30
2023-03-04T05:15:56.765Z,-2.20
2023-03-04T05:18:26.197Z,-2.10
2023-03-04T05:20:58.413Z,-2.10
2023-03-04T05:23:26.082Z,-2.00
2023-03-04T05:25:52.857Z,-1.90
2023-03-04T05:28:20.317Z,-1.90
2023-03-04T05:30:47.069Z,-1.80
2023-03-04T05:33:15.925Z,-1.80
2023-03-04T05:35:43.560Z,-1.80
2023-03-04T05:38:12.880Z,-1.70
2023-03-04T05:40:40.768Z,-1.70
2023-03-04T05:43:08.018Z,-1.60
2023-03-04T05:45:34.833Z,-1.60
2023-03-04T05:48:03.015Z,-1.50
2023-03-04T05:50:30.209Z,-1.50
2023-03-04T05:52:57.149Z,-1.40
2023-03-04T05:55:24.252Z,-1.40
2023-03-04T05:57:50.889Z,-1.40
2023-03-04T06:00:17.892Z,-1.30
2023-03-04T06:02:45.287Z,-1.40
2023-03-04T06:05:14.130Z,-1.30
2023-03-04T06:07:43.093Z,-1.30
2023-03-04T06:10:11.696Z,-1.30
2023-03-04T06:12:38.340Z,-1.30
2023-03-04T06:15:06.122Z,-1.20
2023-03-04T06:17:33.108Z,-1.10
2023-03-04T06:19:59.748Z,-1.10
2023-03-04T06:22:26.471Z,-1.10
2023-03-04T06:24:53.221Z,-1.00
2023-03-04T06:27:20.006Z,-1.00
2023-03-04T06:29:46.650Z,-1.00
2023-03-04T06:32:13.355Z,-0.90
2023-03-04T06:34:40.013Z,-0.80
2023-03-04T06:37:06.781Z,-0.70
2023-03-04T06:39:33.428Z,-0.60
2023-03-04T06:42:00.254Z,-0.60
2023-03-04T06:44:26.929Z,-0.70
2023-03-04T06:46:53.650Z,-0.70
2023-03-04T06:49:20.352Z,-0.60
2023-03-04T06:51:47.096Z,-0.60
2023-03-04T06:54:13.817Z,-0.50
2023-03-04T06:56:40.506Z,-0.40
2023-03-04T06:59:07.268Z,-0.30
2023-03-04T07:01:35.126Z,-0.30
2023-03-04T07:04:02.601Z,-0.20
2023-03-04T07:06:30.160Z,-0.10
2023-03-04T07:08:57.947Z,-0.10
2023-03-04T07:11:25.425Z,0.00
2023-03-04T07:13:52.914Z,0.00
2023-03-04T07:16:21.992Z,0.10
2023-03-04T07:18:48.762Z,0.10
2023-03-04T07:21:16.933Z,0.10
2023-03-04T07:23:43.717Z,0.20
2023-03-04T07:26:10.587Z,0.20
2023-03-04T07:28:37.707Z,0.20
2023-03-04T07:31:25.039Z,0.20
2023-03-04T07:33:52.200Z,0.30
2023-03-04T07:36:19.874Z,0.30
2023-03-04T07:38:48.410Z,0.30
2023-03-04T07:41:16.108Z,0.40
2023-03-04T07:43:43.208Z,0.60
2023-03-04T07:46:10.418Z,0.50
2023-03-04T07:48:37.782Z,0.50
2023-03-04T07:51:16.519Z,0.60
2023-03-04T07:53:45.501Z,0.70
2023-03-04T07:56:15.375Z,0.80
2023-03-04T07:58:42.301Z,0.90
2023-03-04T08:01:18.332Z,1.00
2023-03-04T08:03:45.225Z,1.20
2023-03-04T08:06:15.069Z,1.20
2023-03-04T08:08:43.012Z,1.20
2023-03-04T08:11:19.020Z,1.30
2023-03-04T08:13:46.339Z,1.40
2023-03-04T08:16:17.799Z,1.40
2023-03-04T08:18:48.031Z,1.40
2023-03-04T08:21:16.552Z,1.40
2023-03-04T08:23:43.385Z,1.40
2023-03-04T08:26:13.947Z,1.40
2023-03-04T08:28:41.143Z,1.50
2023-03-04T08:31:08.172Z,1.60
2023-03-04T08:33:35.200Z,1.60
2023-03-04T08:36:01.923Z,1.50
2023-03-04T08:38:28.556Z,1.80
2023-03-04T08:40:56.645Z,1.90
2023-03-04T08:43:24.807Z,2.00
2023-03-04T08:45:53.495Z,2.10
2023-03-04T08:48:20.948Z,2.20
2023-03-04T08:50:48.466Z,2.20
2023-03-04T08:53:15.492Z,2.20
2023-03-04T08:55:43.285Z,2.40
2023-03-04T08:58:10.949Z,2.50
2023-03-04T09:00:39.834Z,2.40
2023-03-04T09:03:06.776Z,2.50
2023-03-04T09:05:33.450Z,2.50
2023-03-04T09:08:00.184Z,2.60
2023-03-04T09:10:26.924Z,2.70
2023-03-04T09:12:54.002Z,2.80
2023-03-04T09:15:20.684Z,2.80
2023-03-04T09:17:47.429Z,2.70
2023-03-04T09:20:14.252Z,2.70
2023-03-04T09:22:42.098Z,2.90
2023-03-04T09:25:13.117Z,3.00
2023-03-04T09:27:40.310Z,3.00
2023-03-04T09:30:08.047Z,3.00
2023-03-04T09:32:34.813Z,3.00
2023-03-04T09:35:01.730Z,3.10
2023-03-04T09:37:28.439Z,3.10
2023-03-04T09:39:55.201Z,2.80
2023-03-04T09:42:37.133Z,3.20
2023-03-04T09:45:06.239Z,3.20
2023-03-04T09:47:36.871Z,3.30
2023-03-04T09:50:08.065Z,3.50
2023-03-04T09:53:07.643Z,3.50
2023-03-04T09:55:39.265Z,3.60
2023-03-04T09:58:33.903Z,3.70
2023-03-04T10:01:17.068Z,3.80
2023-03-04T10:03:56.918Z,3.70
2023-03-04T10:06:24.110Z,3.80
2023-03-04T10:08:56.371Z,3.50
2023-03-04T10:11:39.157Z,3.60
2023-03-04T10:14:32.526Z,3.70
2023-03-04T10:17:23.638Z,3.80
2023-03-04T10:20:04.106Z,4.00
2023-03-04T10:22:40.922Z,4.00
2023-03-04T10:25:32.262Z,4.10
2023-03-04T10:28:29.254Z,4.30
2023-03-04T10:31:11.988Z,4.40
2023-03-04T10:33:40.437Z,4.20
2023-03-04T10:36:29.023Z,4.20
2023-03-04T10:39:00.459Z,4.30
2023-03-04T10:41:29.694Z,4.00
2023-03-04T10:44:02.454Z,4.20
2023-03-04T10:46:30.042Z,4.40
2023-03-04T10:48:57.730Z,4.60
2023-03-04T10:51:27.455Z,4.30
2023-03-04T10:54:03.132Z,4.20
2023-03-04T10:56:42.852Z,4.40
2023-03-04T10:59:38.802Z,4.70
2023-03-04T11:02:20.210Z,4.90
2023-03-04T11:04:56.037Z,5.10
2023-03-04T11:07:27.123Z,5.20
2023-03-04T11:09:55.975Z,5.30
2023-03-04T11:12:33.972Z,5.40
2023-03-04T11:15:02.782Z,5.40
2023-03-04T11:17:43.918Z,5.50
2023-03-04T11:20:34.124Z,5.50
2023-03-04T11:23:05.373Z,5.50
2023-03-04T11:25:43.650Z,5.60
2023-03-04T11:28:13.435Z,5.70
2023-03-04T11:30:57.997Z,5.80
2023-03-04T11:33:42.189Z,5.80
2023-03-04T11:36:23.101Z,5.30
2023-03-04T11:38:51.047Z,5.30
2023-03-04T11:41:31.980Z,5.50
2023-03-04T11:44:00.297Z,5.70
2023-03-04T11:46:36.626Z,5.60
2023-03-04T11:49:24.857Z,5.40
2023-03-04T11:52:13.056Z,5.60
2023-03-04T11:54:46.183Z,5.60
2023-03-04T11:57:33.713Z,5.70
2023-03-04T12:00:26.388Z,5.50
2023-03-04T12:03:20.752Z,5.40
2023-03-04T12:06:00.743Z,5.00
2023-03-04T12:08:45.555Z,5.10
2023-03-04T12:11:48.832Z,5.00
2023-03-04T12:14:22.530Z,5.20
2023-03-04T12:17:10.893Z,5.30
2023-03-04T12:19:56.142Z,5.40
2023-03-04T12:22:29.832Z,5.60
2023-03-04T12:25:19.495Z,5.60
2023-03-04T12:28:03.035Z,5.20
2023-03-04T12:31:07.595Z,5.40
2023-03-04T12:33:55.186Z,5.60
2023-03-04T12:36:31.197Z,5.80
2023-03-04T12:39:17.080Z,5.70
2023-03-04T12:41:48.370Z,5.70
2023-03-04T12:44:20.260Z,5.80
2023-03-04T12:46:58.688Z,5.50
2023-03-04T12:49:55.797Z,5.50
2023-03-04T12:52:44.333Z,5.60
2023-03-04T12:55:15.803Z,5.60
2023-03-04T12:57:42.938Z,5.40
2023-03-04T13:00:38.934Z,5.30
2023-03-04T13:03:21.627Z,5.50
2023-03-04T13:06:05.316Z,5.30
2023-03-04T13:08:43.478Z,5.40
2023-03-04T13:11:29.059Z,5.30
2023-03-04T13:14:26.864Z,5.30
2023-03-04T13:16:55.102Z,5.30
2023-03-04T13:19:57.198Z,5.30
2023-03-04T13:22:39.185Z,5.30
2023-03-04T13:25:47.958Z,5.10
2023-03-04T13:28:20.927Z,5.10
2023-03-04T13:30:57.078Z,5.20
2023-03-04T13:33:23.805Z,5.30
2023-03-04T13:35:59.858Z,5.30
2023-03-04T13:38:29.322Z,5.20
2023-03-04T13:41:05.163Z,5.10
2023-03-04T13:43:49.701Z,5.10
2023-03-04T13:46:19.495Z,5.20
2023-03-04T13:48:52.308Z,5.20
2023-03-04T13:51:29.789Z,5.30
2023-03-04T13:53:59.828Z,4.90
2023-03-04T13:56:37.626Z,4.80
2023-03-04T13:59:44.155Z,5.00
2023-03-04T14:02:22.974Z,5.10
2023-03-04T14:05:00.686Z,5.30
2023-03-04T14:07:29.763Z,5.40
2023-03-04T14:10:04.696Z,5.50
2023-03-04T14:12:37.266Z,5.60
2023-03-04T14:15:23.940Z,5.50
2023-03-04T14:18:03.176Z,5.60
2023-03-04T14:20:34.555Z,5.60
2023-03-04T14:23:03.637Z,5.70
2023-03-04T14:25:33.827Z,5.70
2023-03-04T14:28:14.306Z,5.90
2023-03-04T14:30:44.239Z,5.80
2023-03-04T14:33:18.256Z,5.80
2023-03-04T14:35:51.051Z,5.90
2023-03-04T14:38:34.673Z,6.10
2023-03-04T14:41:04.204Z,6.20
2023-03-04T14:43:39.984Z,6.20
2023-03-04T14:46:12.442Z,6.30
2023-03-04T14:48:40.469Z,6.30
2023-03-04T14:51:27.144Z,6.40
2023-03-04T14:53:56.275Z,6.50
2023-03-04T14:56:30.776Z,6.50
2023-03-04T14:58:58.815Z,6.50
2023-03-04T15:01:36.418Z,6.50
2023-03-04T15:04:04.992Z,6.60
2023-03-04T15:06:34.893Z,6.40
2023-03-04T15:09:07.691Z,6.50
2023-03-04T15:12:01.995Z,6.50
2023-03-04T15:14:46.799Z,6.50
2023-03-04T15:17:41.039Z,6.50
2023-03-04T15:20:07.647Z,6.30
2023-03-04T15:22:35.788Z,6.30
2023-03-04T15:25:02.854Z,6.30
2023-03-04T15:27:30.714Z,6.40
2023-03-04T15:30:00.603Z,6.20
2023-03-04T15:32:28.476Z,6.20
2023-03-04T15:34:55.690Z,6.20
2023-03-04T15:37:27.600Z,6.20
2023-03-04T15:39:56.341Z,6.30
2023-03-04T15:42:23.247Z,6.30
2023-03-04T15:44:49.922Z,6.30
2023-03-04T15:47:16.705Z,6.30
2023-03-04T15:49:47.032Z,6.20
2023-03-04T15:52:18.047Z,6.20
2023-03-04T15:54:45.631Z,6.20
2023-03-04T15:57:26.402Z,6.20
2023-03-04T15:59:53.676Z,6.20
2023-03-04T16:02:27.438Z,6.20
2023-03-04T16:04:54.566Z,6.20
2023-03-04T16:07:25.203Z,6.20
2023-03-04T16:09:56.592Z,6.20
2023-03-04T16:12:24.415Z,6.30
2023-03-04T16:14:51.231Z,6.20
2023-03-04T16:17:18.351Z,6.10
2023-03-04T16:19:45.737Z,6.10
2023-03-04T16:22:17.953Z,6.10
2023-03-04T16:24:44.726Z,6.10
2023-03-04T16:27:16.540Z,6.10
2023-03-04T16:29:43.290Z,6.00
2023-03-04T16:32:10.942Z,6.00
2023-03-04T16:34:37.672Z,6.00
2023-03-04T16:37:12.357Z,6.00
2023-03-04T16:39:41.078Z,6.00
2023-03-04T16:42:14.805Z,6.00
2023-03-04T16:44:41.492Z,6.00
2023-03-04T16:47:08.255Z,6.00
2023-03-04T16:49:34.900Z,6.00
2023-03-04T16:52:01.699Z,6.00
2023-03-04T16:54:31.106Z,6.00
2023-03-04T16:56:58.961Z,6.00
2023-03-04T16:59:26.374Z,6.00
2023-03-04T17:01:53.893Z,6.00
2023-03-04T17:04:21.752Z,5.90
2023-03-04T17:06:48.549Z,5.90
2023-03-04T17:09:15.212Z,5.90
2023-03-04T17:11:41.958Z,5.80
2023-03-04T17:14:08.611Z,5.80
2023-03-04T17:16:36.065Z,5.80
2023-03-04T17:19:02.765Z,5.80
2023-03-04T17:21:29.486Z,5.80
2023-03-04T17:23:56.132Z,5.80
2023-03-04T17:26:22.953Z,5.80
2023-03-04T17:28:50.920Z,5.80
2023-03-04T17:31:20.023Z,5.80
2023-03-04T17:33:47.287Z,5.80
2023-03-04T17:36:15.817Z,5.70
2023-03-04T17:38:43.233Z,5.80
2023-03-04T17:41:17.376Z,5.70
2023-03-04T17:43:46.374Z,5.70
2023-03-04T17:46:14.856Z,5.80
2023-03-04T17:48:41.961Z,5.80
2023-03-04T17:51:09.404Z,5.70
2023-03-04T17:53:36.385Z,5.70
2023-03-04T17:56:05.836Z,5.70
2023-03-04T17:58:35.390Z,5.70
2023-03-04T18:01:19.933Z,5.70
2023-03-04T18:03:47.236Z,5.50
2023-03-04T18:06:14.029Z,5.50
2023-03-04T18:08:40.714Z,5.40
2023-03-04T18:11:07.338Z,5.30
2023-03-04T18:13:34.017Z,5.20
2023-03-04T18:16:00.694Z,5.20
2023-03-04T18:18:27.416Z,5.20
2023-03-04T18:20:59.043Z,5.10
2023-03-04T18:23:26.653Z,5.10
2023-03-04T18:25:53.296Z,5.10
2023-03-04T18:28:19.984Z,5.10
2023-03-04T18:30:46.780Z,5.00
2023-03-04T18:33:13.550Z,5.20
2023-03-04T18:35:40.276Z,5.20
2023-03-04T18:38:07.016Z,5.20
2023-03-04T18:40:33.738Z,5.10
2023-03-04T18:43:00.492Z,5.10
2023-03-04T18:45:27.651Z,5.10
2023-03-04T18:47:54.667Z,5.10
2023-03-04T18:50:24.061Z,5.10
2023-03-04T18:52:52.698Z,5.20
2023-03-04T18:55:20.669Z,5.20
2023-03-04T18:57:52.201Z,5.10
2023-03-04T19:00:21.584Z,5.10
2023-03-04T19:02:52.174Z,5.20
2023-03-04T19:05:26.709Z,5.10
2023-03-04T19:07:54.178Z,5.10
2023-03-04T19:10:20.945Z,5.10
2023-03-04T19:12:47.977Z,5.10
2023-03-04T19:15:15.098Z,5.20
2023-03-04T19:17:45.127Z,5.10
2023-03-04T19:20:13.252Z,5.20
2023-03-04T19:22:39.981Z,5.10
2023-03-04T19:25:07.260Z,5.20
2023-03-04T19:27:33.926Z,5.20
2023-03-04T19:30:01.370Z,5.20
2023-03-04T19:32:28.196Z,5.20
2023-03-04T19:34:54.849Z,5.20
2023-03-04T19:37:21.526Z,5.30
2023-03-04T19:39:49.193Z,5.30
2023-03-04T19:42:16.200Z,5.30
2023-03-04T19:44:44.867Z,5.20
2023-03-04T19:47:11.877Z,5.20
2023-03-04T19:49:38.713Z,5.20
2023-03-04T19:52:05.635Z,5.20
2023-03-04T19:54:33.157Z,5.20
2023-03-04T19:56:59.890Z,5.10
2023-03-04T19:59:26.552Z,5.10
2023-03-04T20:01:54.107Z,5.10
2023-03-04T20:04:21.430Z,5.00
2023-03-04T20:06:50.111Z,5.00
2023-03-04T20:09:18.223Z,5.00
2023-03-04T20:11:57.721Z,5.00
2023-03-04T20:14:30.098Z,5.10
2023-03-04T20:17:04.549Z,5.10
2023-03-04T20:19:32.048Z,5.00
2023-03-04T20:21:58.736Z,5.00
2023-03-04T20:24:26.290Z,5.00
2023-03-04T20:26:53.396Z,5.00
2023-03-04T20:29:20.135Z,5.00
2023-03-04T20:31:46.891Z,5.00
2023-03-04T20:34:13.890Z,4.90
2023-03-04T20:36:40.617Z,4.90
2023-03-04T20:39:25.742Z,4.90
2023-03-04T20:41:54.230Z,4.90
2023-03-04T20:44:20.915Z,4.80
2023-03-04T20:46:47.571Z,4.80
2023-03-04T20:49:22.114Z,4.80
2023-03-04T20:51:50.640Z,4.80
2023-03-04T20:54:17.474Z,4.80
2023-03-04T20:56:44.248Z,4.80
2023-03-04T20:59:12.325Z,4.70
2023-03-04T21:01:41.477Z,4.70
2023-03-04T21:04:08.376Z,4.70
2023-03-04T21:06:36.168Z,4.70
2023-03-04T21:09:05.944Z,4.70
2023-03-04T21:11:39.910Z,4.80
2023-03-04T21:14:21.969Z,4.80
2023-03-04T21:16:51.046Z,4.80
2023-03-04T21:19:25.536Z,4.80
2023-03-04T21:21:52.246Z,4.80
2023-03-04T21:24:21.883Z,4.90
2023-03-04T21:26:48.959Z,4.80
2023-03-04T21:29:17.889Z,4.90
2023-03-04T21:31:47.473Z,4.90
2023-03-04T21:34:21.471Z,4.90
2023-03-04T21:36:48.306Z,4.80
2023-03-04T21:39:20.794Z,4.80
2023-03-04T21:41:47.730Z,4.90
2023-03-04T21:44:28.097Z,4.90
2023-03-04T21:47:01.024Z,4.90
2023-03-04T21:49:28.232Z,4.90
2023-03-04T21:51:55.202Z,4.90
2023-03-04T21:54:22.114Z,4.90
2023-03-04T21:56:50.126Z,4.90
2023-03-04T21:59:20.173Z,4.80
2023-03-04T22:01:46.990Z,4.90
2023-03-04T22:04:13.806Z,4.90
2023-03-04T22:06:41.467Z,4.90
2023-03-04T22:09:08.600Z,5.00
2023-03-04T22:11:35.356Z,5.00
2023-03-04T22:14:03.310Z,5.00
2023-03-04T22:16:35.376Z,5.00
2023-03-04T22:19:04.459Z,5.00
2023-03-04T22:21:31.168Z,4.90
2023-03-04T22:23:57.854Z,4.90
2023-03-04T22:26:31.471Z,4.90
2023-03-04T22:29:00.329Z,4.90
2023-03-04T22:31:30.468Z,4.90
2023-03-04T22:34:02.877Z,4.90
2023-03-04T22:36:30.899Z,5.00
2023-03-04T22:38:57.846Z,4.90
2023-03-04T22:41:24.965Z,4.90
2023-03-04T22:43:51.673Z,4.90
2023-03-04T22:46:24.845Z,4.80
2023-03-04T22:48:53.200Z,4.90
2023-03-04T22:51:20.682Z,4.90
2023-03-04T22:53:48.611Z,4.80
2023-03-04T22:56:15.580Z,4.80
2023-03-04T22:58:44.423Z,4.80
2023-03-04T23:01:13.345Z,4.80
2023-03-04T23:03:41.616Z,4.80
2023-03-04T23:06:11.969Z,4.90
2023-03-04T23:08:40.586Z,4.90
2023-03-04T23:11:13.247Z,4.80
2023-03-04T23:13:40.719Z,4.80
2023-03-04T23:16:09.664Z,4.80
2023-03-04T23:18:37.720Z,4.80
2023-03-04T23:21:13.149Z,4.80
2023-03-04T23:23:41.114Z,4.80
2023-03-04T23:26:28.028Z,4.80
2023-03-04T23:28:56.856Z,4.80
2023-03-04T23:31:23.888Z,4.80
2023-03-04T23:33:50.741Z,4.80
2023-03-04T23:36:19.121Z,4.80
2023-03-04T23:38:49.045Z,4.70
2023-03-04T23:41:27.955Z,4.70
2023-03-04T23:43:56.118Z,4.70
2023-03-04T23:46:23.779Z,4.70
2023-03-04T23:48:52.050Z,4.70
2023-03-04T23:51:22.374Z,4.70
2023-03-04T23:53:49.119Z,4.70
2023-03-04T23:56:18.931Z,4.60
2023-03-04T23:58:46.158Z,4.60
